sensor_id;sensor_type;location;lat;lon;timestamp;temperature;humidity
42833;DHT22;64089;51.478;5.692;2022-11-20T00:01:50;0.40;99.90
42833;DHT22;64089;51.478;5.692;2022-11-20T00:04:15;0.40;99.90
42833;DHT22;64089;51.478;5.692;2022-11-20T00:06:41;0.30;99.90
42833;DHT22;64089;51.478;5.692;2022-11-20T00:09:08;0.20;99.90
42833;DHT22;64089;51.478;5.692;2022-11-20T00:11:35;0.10;99.90
42833;DHT22;64089;51.478;5.692;2022-11-20T00:14:01;0.10;99.90
42833;DHT22;64089;51.478;5.692;2022-11-20T00:16:30;0.00;99.90
42833;DHT22;64089;51.478;5.692;2022-11-20T00:18:56;0.00;99.90
42833;DHT22;64089;51.478;5.692;2022-11-20T00:21:23;0.00;99.90
42833;DHT22;64089;51.478;5.692;2022-11-20T00:23:50;-0.20;99.90
42833;DHT22;64089;51.478;5.692;2022-11-20T00:26:17;-0.20;99.90
42833;DHT22;64089;51.478;5.692;2022-11-20T00:28:48;-0.20;99.90
42833;DHT22;64089;51.478;5.692;2022-11-20T00:31:14;-0.20;99.90
42833;DHT22;64089;51.478;5.692;2022-11-20T00:33:41;-0.20;99.90
42833;DHT22;64089;51.478;5.692;2022-11-20T00:36:18;-0.20;99.90
42833;DHT22;64089;51.478;5.692;2022-11-20T00:38:44;-0.30;99.90
42833;DHT22;64089;51.478;5.692;2022-11-20T00:41:12;-0.30;99.90
42833;DHT22;64089;51.478;5.692;2022-11-20T00:43:38;-0.30;99.90
42833;DHT22;64089;51.478;5.692;2022-11-20T00:46:09;-0.30;99.90
42833;DHT22;64089;51.478;5.692;2022-11-20T00:48:35;-0.40;99.90
42833;DHT22;64089;51.478;5.692;2022-11-20T00:51:01;-0.40;99.90
42833;DHT22;64089;51.478;5.692;2022-11-20T00:53:27;-0.40;99.90
42833;DHT22;64089;51.478;5.692;2022-11-20T00:56:00;-0.40;99.90
42833;DHT22;64089;51.478;5.692;2022-11-20T00:58:30;-0.40;99.90
42833;DHT22;64089;51.478;5.692;2022-11-20T01:01:04;-0.40;99.90
42833;DHT22;64089;51.478;5.692;2022-11-20T01:03:31;-0.30;99.90
42833;DHT22;64089;51.478;5.692;2022-11-20T01:06:07;-0.40;99.90
42833;DHT22;64089;51.478;5.692;2022-11-20T01:08:35;-0.40;99.90
42833;DHT22;64089;51.478;5.692;2022-11-20T01:11:03;-0.50;99.90
42833;DHT22;64089;51.478;5.692;2022-11-20T01:13:30;-0.60;99.90
42833;DHT22;64089;51.478;5.692;2022-11-20T01:16:18;-0.60;99.90
42833;DHT22;64089;51.478;5.692;2022-11-20T01:18:46;-0.60;99.90
42833;DHT22;64089;51.478;5.692;2022-11-20T01:21:19;-0.60;99.90
42833;DHT22;64089;51.478;5.692;2022-11-20T01:23:45;-0.60;99.90
42833;DHT22;64089;51.478;5.692;2022-11-20T01:26:19;-0.60;99.90
42833;DHT22;64089;51.478;5.692;2022-11-20T01:28:46;-0.60;99.90
42833;DHT22;64089;51.478;5.692;2022-11-20T01:31:17;-0.70;99.90
42833;DHT22;64089;51.478;5.692;2022-11-20T01:33:44;-0.70;99.90
42833;DHT22;64089;51.478;5.692;2022-11-20T01:36:10;-0.80;99.90
42833;DHT22;64089;51.478;5.692;2022-11-20T01:38:36;-0.80;99.90
42833;DHT22;64089;51.478;5.692;2022-11-20T01:41:02;-0.90;99.90
42833;DHT22;64089;51.478;5.692;2022-11-20T01:43:28;-1.00;99.90
42833;DHT22;64089;51.478;5.692;2022-11-20T01:48:38;-0.90;99.90
42833;DHT22;64089;51.478;5.692;2022-11-20T01:51:10;-1.00;99.90
42833;DHT22;64089;51.478;5.692;2022-11-20T01:53:38;-1.10;99.90
42833;DHT22;64089;51.478;5.692;2022-11-20T01:56:06;-1.10;99.90
42833;DHT22;64089;51.478;5.692;2022-11-20T01:58:35;-1.00;99.90
42833;DHT22;64089;51.478;5.692;2022-11-20T02:01:04;-1.00;99.90
42833;DHT22;64089;51.478;5.692;2022-11-20T02:03:29;-1.00;99.90
42833;DHT22;64089;51.478;5.692;2022-11-20T02:06:04;-1.00;99.90
42833;DHT22;64089;51.478;5.692;2022-11-20T02:08:31;-1.00;99.90
42833;DHT22;64089;51.478;5.692;2022-11-20T02:10:57;-1.00;99.90
42833;DHT22;64089;51.478;5.692;2022-11-20T02:13:23;-1.00;99.90
42833;DHT22;64089;51.478;5.692;2022-11-20T02:16:30;-0.90;99.90
42833;DHT22;64089;51.478;5.692;2022-11-20T02:18:59;-0.90;99.90
42833;DHT22;64089;51.478;5.692;2022-11-20T02:21:55;-1.00;99.90
42833;DHT22;64089;51.478;5.692;2022-11-20T02:24:22;-1.00;99.90
42833;DHT22;64089;51.478;5.692;2022-11-20T02:26:57;-1.10;99.90
42833;DHT22;64089;51.478;5.692;2022-11-20T02:32:38;-1.10;99.90
42833;DHT22;64089;51.478;5.692;2022-11-20T02:37:58;-1.10;99.90
42833;DHT22;64089;51.478;5.692;2022-11-20T02:40:24;-1.00;99.90
42833;DHT22;64089;51.478;5.692;2022-11-20T02:42:56;-1.00;99.90
42833;DHT22;64089;51.478;5.692;2022-11-20T02:45:23;-0.80;99.90
42833;DHT22;64089;51.478;5.692;2022-11-20T02:47:49;-0.80;99.90
42833;DHT22;64089;51.478;5.692;2022-11-20T02:50:15;-0.70;99.90
42833;DHT22;64089;51.478;5.692;2022-11-20T02:52:41;-0.60;99.90
42833;DHT22;64089;51.478;5.692;2022-11-20T02:55:06;-0.70;99.90
42833;DHT22;64089;51.478;5.692;2022-11-20T02:57:32;-0.60;99.90
42833;DHT22;64089;51.478;5.692;2022-11-20T02:59:58;-0.60;99.90
42833;DHT22;64089;51.478;5.692;2022-11-20T03:02:23;-0.40;99.90
42833;DHT22;64089;51.478;5.692;2022-11-20T03:04:49;-0.40;99.90
42833;DHT22;64089;51.478;5.692;2022-11-20T03:07:15;-0.40;99.90
42833;DHT22;64089;51.478;5.692;2022-11-20T03:09:41;-0.40;99.90
42833;DHT22;64089;51.478;5.692;2022-11-20T03:12:06;-0.30;99.90
42833;DHT22;64089;51.478;5.692;2022-11-20T03:14:32;-0.30;99.90
42833;DHT22;64089;51.478;5.692;2022-11-20T03:16:58;-0.40;99.90
42833;DHT22;64089;51.478;5.692;2022-11-20T03:19:23;-0.50;99.90
42833;DHT22;64089;51.478;5.692;2022-11-20T03:21:49;-0.40;99.90
42833;DHT22;64089;51.478;5.692;2022-11-20T03:24:15;-0.30;99.90
42833;DHT22;64089;51.478;5.692;2022-11-20T03:26:41;-0.40;99.90
42833;DHT22;64089;51.478;5.692;2022-11-20T03:29:07;-0.40;99.90
42833;DHT22;64089;51.478;5.692;2022-11-20T03:31:35;-0.50;99.90
42833;DHT22;64089;51.478;5.692;2022-11-20T03:34:02;-0.70;99.90
42833;DHT22;64089;51.478;5.692;2022-11-20T03:36:28;-0.70;99.90
42833;DHT22;64089;51.478;5.692;2022-11-20T03:38:55;-0.60;99.90
42833;DHT22;64089;51.478;5.692;2022-11-20T03:41:23;-0.60;99.90
42833;DHT22;64089;51.478;5.692;2022-11-20T03:43:58;-0.50;99.90
42833;DHT22;64089;51.478;5.692;2022-11-20T03:46:25;-0.40;99.90
42833;DHT22;64089;51.478;5.692;2022-11-20T03:48:51;-0.40;99.90
42833;DHT22;64089;51.478;5.692;2022-11-20T03:53:45;-0.40;99.90
42833;DHT22;64089;51.478;5.692;2022-11-20T03:56:12;-0.30;99.90
42833;DHT22;64089;51.478;5.692;2022-11-20T03:58:39;-0.30;99.90
42833;DHT22;64089;51.478;5.692;2022-11-20T04:01:13;-0.40;99.90
42833;DHT22;64089;51.478;5.692;2022-11-20T04:03:41;-0.40;99.90
42833;DHT22;64089;51.478;5.692;2022-11-20T04:06:09;-0.50;99.90
42833;DHT22;64089;51.478;5.692;2022-11-20T04:08:36;-0.40;99.90
42833;DHT22;64089;51.478;5.692;2022-11-20T04:11:12;-0.50;99.90
42833;DHT22;64089;51.478;5.692;2022-11-20T04:13:38;-0.50;99.90
42833;DHT22;64089;51.478;5.692;2022-11-20T04:16:05;-0.50;99.90
42833;DHT22;64089;51.478;5.692;2022-11-20T04:18:31;-0.50;99.90
42833;DHT22;64089;51.478;5.692;2022-11-20T04:20:58;-0.60;99.90
42833;DHT22;64089;51.478;5.692;2022-11-20T04:23:24;-0.50;99.90
42833;DHT22;64089;51.478;5.692;2022-11-20T04:25:50;-0.60;99.90
42833;DHT22;64089;51.478;5.692;2022-11-20T04:28:15;-0.50;99.90
42833;DHT22;64089;51.478;5.692;2022-11-20T04:30:41;-0.60;99.90
42833;DHT22;64089;51.478;5.692;2022-11-20T04:33:06;-0.70;99.90
42833;DHT22;64089;51.478;5.692;2022-11-20T04:35:36;-0.70;99.90
42833;DHT22;64089;51.478;5.692;2022-11-20T04:38:02;-0.80;99.90
42833;DHT22;64089;51.478;5.692;2022-11-20T04:40:28;-0.80;99.90
42833;DHT22;64089;51.478;5.692;2022-11-20T04:42:54;-0.90;99.90
42833;DHT22;64089;51.478;5.692;2022-11-20T04:45:21;-0.90;99.90
42833;DHT22;64089;51.478;5.692;2022-11-20T04:47:47;-0.90;99.90
42833;DHT22;64089;51.478;5.692;2022-11-20T04:50:12;-0.80;99.90
42833;DHT22;64089;51.478;5.692;2022-11-20T04:52:38;-0.80;99.90
42833;DHT22;64089;51.478;5.692;2022-11-20T04:55:04;-0.80;99.90
42833;DHT22;64089;51.478;5.692;2022-11-20T04:57:29;-0.70;99.90
42833;DHT22;64089;51.478;5.692;2022-11-20T04:59:55;-0.70;99.90
42833;DHT22;64089;51.478;5.692;2022-11-20T05:02:21;-0.60;99.90
42833;DHT22;64089;51.478;5.692;2022-11-20T05:04:47;-0.60;99.90
42833;DHT22;64089;51.478;5.692;2022-11-20T05:07:12;-0.70;99.90
42833;DHT22;64089;51.478;5.692;2022-11-20T05:09:38;-0.60;99.90
42833;DHT22;64089;51.478;5.692;2022-11-20T05:12:04;-0.60;99.90
42833;DHT22;64089;51.478;5.692;2022-11-20T05:14:29;-0.60;99.90
42833;DHT22;64089;51.478;5.692;2022-11-20T05:16:55;-0.60;99.90
42833;DHT22;64089;51.478;5.692;2022-11-20T05:19:20;-0.70;99.90
42833;DHT22;64089;51.478;5.692;2022-11-20T05:21:46;-0.80;99.90
42833;DHT22;64089;51.478;5.692;2022-11-20T05:24:12;-0.80;99.90
42833;DHT22;64089;51.478;5.692;2022-11-20T05:26:38;-0.90;99.90
42833;DHT22;64089;51.478;5.692;2022-11-20T05:29:03;-0.80;99.90
42833;DHT22;64089;51.478;5.692;2022-11-20T05:31:29;-0.80;99.90
42833;DHT22;64089;51.478;5.692;2022-11-20T05:33:56;-0.70;99.90
42833;DHT22;64089;51.478;5.692;2022-11-20T05:36:22;-0.70;99.90
42833;DHT22;64089;51.478;5.692;2022-11-20T05:38:47;-0.70;99.90
42833;DHT22;64089;51.478;5.692;2022-11-20T05:41:15;-0.60;99.90
42833;DHT22;64089;51.478;5.692;2022-11-20T05:43:43;-0.50;99.90
42833;DHT22;64089;51.478;5.692;2022-11-20T05:46:10;-0.50;99.90
42833;DHT22;64089;51.478;5.692;2022-11-20T05:48:37;-0.40;99.90
42833;DHT22;64089;51.478;5.692;2022-11-20T05:51:05;-0.50;99.90
42833;DHT22;64089;51.478;5.692;2022-11-20T05:53:32;-0.40;99.90
42833;DHT22;64089;51.478;5.692;2022-11-20T05:56:03;-0.40;99.90
42833;DHT22;64089;51.478;5.692;2022-11-20T05:58:29;-0.40;99.90
42833;DHT22;64089;51.478;5.692;2022-11-20T06:01:13;-0.30;99.90
42833;DHT22;64089;51.478;5.692;2022-11-20T06:03:39;-0.30;99.90
42833;DHT22;64089;51.478;5.692;2022-11-20T06:06:05;-0.30;99.90
42833;DHT22;64089;51.478;5.692;2022-11-20T06:08:32;-0.20;99.90
42833;DHT22;64089;51.478;5.692;2022-11-20T06:10:57;-0.20;99.90
42833;DHT22;64089;51.478;5.692;2022-11-20T06:13:23;-0.10;99.90
42833;DHT22;64089;51.478;5.692;2022-11-20T06:15:50;-0.10;99.90
42833;DHT22;64089;51.478;5.692;2022-11-20T06:18:16;-0.10;99.90
42833;DHT22;64089;51.478;5.692;2022-11-20T06:20:42;-0.10;99.90
42833;DHT22;64089;51.478;5.692;2022-11-20T06:23:08;-0.10;99.90
42833;DHT22;64089;51.478;5.692;2022-11-20T06:25:38;-0.10;99.90
42833;DHT22;64089;51.478;5.692;2022-11-20T06:28:03;-0.10;99.90
42833;DHT22;64089;51.478;5.692;2022-11-20T06:30:29;0.00;99.90
42833;DHT22;64089;51.478;5.692;2022-11-20T06:32:54;0.00;99.90
42833;DHT22;64089;51.478;5.692;2022-11-20T06:35:20;0.00;99.90
42833;DHT22;64089;51.478;5.692;2022-11-20T06:37:46;0.10;99.90
42833;DHT22;64089;51.478;5.692;2022-11-20T06:40:12;0.20;99.90
42833;DHT22;64089;51.478;5.692;2022-11-20T06:42:37;0.10;99.90
42833;DHT22;64089;51.478;5.692;2022-11-20T06:45:03;0.20;99.90
42833;DHT22;64089;51.478;5.692;2022-11-20T06:47:28;0.20;99.90
42833;DHT22;64089;51.478;5.692;2022-11-20T06:49:54;0.20;99.90
42833;DHT22;64089;51.478;5.692;2022-11-20T06:52:20;0.30;99.90
42833;DHT22;64089;51.478;5.692;2022-11-20T06:54:45;0.30;99.90
42833;DHT22;64089;51.478;5.692;2022-11-20T06:57:11;0.40;99.90
42833;DHT22;64089;51.478;5.692;2022-11-20T06:59:36;0.40;99.90
42833;DHT22;64089;51.478;5.692;2022-11-20T07:02:02;0.50;99.90
42833;DHT22;64089;51.478;5.692;2022-11-20T07:04:28;0.50;99.90
42833;DHT22;64089;51.478;5.692;2022-11-20T07:06:53;0.50;99.90
42833;DHT22;64089;51.478;5.692;2022-11-20T07:09:19;0.50;99.90
42833;DHT22;64089;51.478;5.692;2022-11-20T07:11:44;0.60;99.90
42833;DHT22;64089;51.478;5.692;2022-11-20T07:14:10;0.60;99.90
42833;DHT22;64089;51.478;5.692;2022-11-20T07:16:35;0.60;99.90
42833;DHT22;64089;51.478;5.692;2022-11-20T07:19:01;0.70;99.90
42833;DHT22;64089;51.478;5.692;2022-11-20T07:21:26;0.70;99.90
42833;DHT22;64089;51.478;5.692;2022-11-20T07:23:52;0.70;99.90
42833;DHT22;64089;51.478;5.692;2022-11-20T07:26:17;0.70;99.90
42833;DHT22;64089;51.478;5.692;2022-11-20T07:28:45;0.70;99.90
42833;DHT22;64089;51.478;5.692;2022-11-20T07:31:11;0.80;99.90
42833;DHT22;64089;51.478;5.692;2022-11-20T07:33:38;0.80;99.90
42833;DHT22;64089;51.478;5.692;2022-11-20T07:36:04;0.90;99.90
42833;DHT22;64089;51.478;5.692;2022-11-20T07:38:30;0.90;99.90
42833;DHT22;64089;51.478;5.692;2022-11-20T07:40:59;0.90;99.90
42833;DHT22;64089;51.478;5.692;2022-11-20T07:43:27;1.10;99.90
42833;DHT22;64089;51.478;5.692;2022-11-20T07:45:55;1.10;99.90
42833;DHT22;64089;51.478;5.692;2022-11-20T07:48:21;1.10;99.90
42833;DHT22;64089;51.478;5.692;2022-11-20T07:50:47;1.10;99.90
42833;DHT22;64089;51.478;5.692;2022-11-20T07:53:13;1.10;99.90
42833;DHT22;64089;51.478;5.692;2022-11-20T07:55:39;1.20;99.90
42833;DHT22;64089;51.478;5.692;2022-11-20T07:58:05;1.20;99.90
42833;DHT22;64089;51.478;5.692;2022-11-20T08:00:31;1.30;99.90
42833;DHT22;64089;51.478;5.692;2022-11-20T08:02:56;1.20;99.90
42833;DHT22;64089;51.478;5.692;2022-11-20T08:05:22;1.30;99.90
42833;DHT22;64089;51.478;5.692;2022-11-20T08:07:48;1.30;99.90
42833;DHT22;64089;51.478;5.692;2022-11-20T08:10:14;1.40;99.90
42833;DHT22;64089;51.478;5.692;2022-11-20T08:12:49;1.40;99.90
42833;DHT22;64089;51.478;5.692;2022-11-20T08:15:34;1.50;99.90
42833;DHT22;64089;51.478;5.692;2022-11-20T08:18:05;1.60;99.90
42833;DHT22;64089;51.478;5.692;2022-11-20T08:20:31;1.60;99.90
42833;DHT22;64089;51.478;5.692;2022-11-20T08:23:01;1.60;99.90
42833;DHT22;64089;51.478;5.692;2022-11-20T08:25:28;1.70;99.90
42833;DHT22;64089;51.478;5.692;2022-11-20T08:27:54;1.70;99.90
42833;DHT22;64089;51.478;5.692;2022-11-20T08:30:21;1.80;99.90
42833;DHT22;64089;51.478;5.692;2022-11-20T08:32:47;1.90;99.90
42833;DHT22;64089;51.478;5.692;2022-11-20T08:35:13;2.10;99.90
42833;DHT22;64089;51.478;5.692;2022-11-20T08:37:38;2.20;99.90
42833;DHT22;64089;51.478;5.692;2022-11-20T08:40:10;2.20;99.90
42833;DHT22;64089;51.478;5.692;2022-11-20T08:42:36;2.30;99.90
42833;DHT22;64089;51.478;5.692;2022-11-20T08:45:02;2.20;99.90
42833;DHT22;64089;51.478;5.692;2022-11-20T08:47:28;2.30;99.90
42833;DHT22;64089;51.478;5.692;2022-11-20T08:49:53;2.30;99.90
42833;DHT22;64089;51.478;5.692;2022-11-20T08:52:19;2.30;99.90
42833;DHT22;64089;51.478;5.692;2022-11-20T08:54:45;2.40;99.90
42833;DHT22;64089;51.478;5.692;2022-11-20T08:57:10;2.40;99.90
42833;DHT22;64089;51.478;5.692;2022-11-20T08:59:36;2.40;99.90
42833;DHT22;64089;51.478;5.692;2022-11-20T09:02:01;2.50;99.90
42833;DHT22;64089;51.478;5.692;2022-11-20T09:04:27;2.60;99.90
42833;DHT22;64089;51.478;5.692;2022-11-20T09:06:52;2.70;99.90
42833;DHT22;64089;51.478;5.692;2022-11-20T09:09:18;2.80;99.90
42833;DHT22;64089;51.478;5.692;2022-11-20T09:11:44;2.80;99.90
42833;DHT22;64089;51.478;5.692;2022-11-20T09:14:10;2.90;99.90
42833;DHT22;64089;51.478;5.692;2022-11-20T09:16:35;3.00;99.90
42833;DHT22;64089;51.478;5.692;2022-11-20T09:19:01;3.10;99.90
42833;DHT22;64089;51.478;5.692;2022-11-20T09:21:27;3.10;99.90
42833;DHT22;64089;51.478;5.692;2022-11-20T09:23:52;3.10;99.90
42833;DHT22;64089;51.478;5.692;2022-11-20T09:26:18;3.10;99.90
42833;DHT22;64089;51.478;5.692;2022-11-20T09:28:44;3.20;99.90
42833;DHT22;64089;51.478;5.692;2022-11-20T09:31:23;3.30;99.90
42833;DHT22;64089;51.478;5.692;2022-11-20T09:33:49;3.50;99.90
42833;DHT22;64089;51.478;5.692;2022-11-20T09:36:15;3.70;99.90
42833;DHT22;64089;51.478;5.692;2022-11-20T09:38:42;3.70;99.90
42833;DHT22;64089;51.478;5.692;2022-11-20T09:46:22;3.70;99.90
42833;DHT22;64089;51.478;5.692;2022-11-20T09:54:20;3.80;99.90
42833;DHT22;64089;51.478;5.692;2022-11-20T09:56:56;3.80;99.90
42833;DHT22;64089;51.478;5.692;2022-11-20T10:00:03;3.70;99.90
42833;DHT22;64089;51.478;5.692;2022-11-20T10:02:28;3.70;99.90
42833;DHT22;64089;51.478;5.692;2022-11-20T10:05:11;3.70;99.90
42833;DHT22;64089;51.478;5.692;2022-11-20T10:07:48;3.80;99.90
42833;DHT22;64089;51.478;5.692;2022-11-20T10:10:45;3.80;99.90
42833;DHT22;64089;51.478;5.692;2022-11-20T10:13:17;3.90;99.90
42833;DHT22;64089;51.478;5.692;2022-11-20T10:18:54;3.90;99.90
42833;DHT22;64089;51.478;5.692;2022-11-20T10:21:54;3.90;99.90
42833;DHT22;64089;51.478;5.692;2022-11-20T10:27:56;4.00;99.90
42833;DHT22;64089;51.478;5.692;2022-11-20T10:30:16;4.10;99.90
42833;DHT22;64089;51.478;5.692;2022-11-20T10:32:48;4.10;99.90
42833;DHT22;64089;51.478;5.692;2022-11-20T10:37:58;4.30;99.90
42833;DHT22;64089;51.478;5.692;2022-11-20T10:40:45;4.30;99.90
42833;DHT22;64089;51.478;5.692;2022-11-20T10:43:33;4.40;99.90
42833;DHT22;64089;51.478;5.692;2022-11-20T10:46:03;4.50;99.90
42833;DHT22;64089;51.478;5.692;2022-11-20T10:48:31;4.60;99.90
42833;DHT22;64089;51.478;5.692;2022-11-20T10:51:18;4.80;99.90
42833;DHT22;64089;51.478;5.692;2022-11-20T10:56:46;4.80;99.90
42833;DHT22;64089;51.478;5.692;2022-11-20T11:01:41;4.60;99.90
42833;DHT22;64089;51.478;5.692;2022-11-20T11:07:36;4.50;99.90
42833;DHT22;64089;51.478;5.692;2022-11-20T11:10:19;4.40;99.90
42833;DHT22;64089;51.478;5.692;2022-11-20T11:12:47;4.30;99.90
42833;DHT22;64089;51.478;5.692;2022-11-20T11:15:39;4.30;99.90
42833;DHT22;64089;51.478;5.692;2022-11-20T11:18:05;4.40;99.90
42833;DHT22;64089;51.478;5.692;2022-11-20T11:20:33;4.40;99.90
42833;DHT22;64089;51.478;5.692;2022-11-20T11:22:59;4.70;99.90
42833;DHT22;64089;51.478;5.692;2022-11-20T11:28:05;5.00;99.90
42833;DHT22;64089;51.478;5.692;2022-11-20T11:30:41;5.10;99.90
42833;DHT22;64089;51.478;5.692;2022-11-20T11:33:18;4.90;99.90
42833;DHT22;64089;51.478;5.692;2022-11-20T11:35:49;4.80;99.90
42833;DHT22;64089;51.478;5.692;2022-11-20T11:38:17;4.70;99.90
42833;DHT22;64089;51.478;5.692;2022-11-20T11:40:46;4.60;99.90
42833;DHT22;64089;51.478;5.692;2022-11-20T11:43:25;4.60;99.90
42833;DHT22;64089;51.478;5.692;2022-11-20T11:46:30;4.50;99.90
42833;DHT22;64089;51.478;5.692;2022-11-20T11:51:37;4.40;99.90
42833;DHT22;64089;51.478;5.692;2022-11-20T11:54:15;4.50;99.90
42833;DHT22;64089;51.478;5.692;2022-11-20T11:56:42;4.50;99.90
42833;DHT22;64089;51.478;5.692;2022-11-20T11:59:15;4.40;99.90
42833;DHT22;64089;51.478;5.692;2022-11-20T12:01:46;4.40;99.90
42833;DHT22;64089;51.478;5.692;2022-11-20T12:07:04;4.40;99.90
42833;DHT22;64089;51.478;5.692;2022-11-20T12:09:37;4.30;99.90
42833;DHT22;64089;51.478;5.692;2022-11-20T12:12:13;4.40;99.90
42833;DHT22;64089;51.478;5.692;2022-11-20T12:14:46;4.30;99.90
42833;DHT22;64089;51.478;5.692;2022-11-20T12:17:13;4.40;99.90
42833;DHT22;64089;51.478;5.692;2022-11-20T12:19:39;4.50;99.90
42833;DHT22;64089;51.478;5.692;2022-11-20T12:25:14;4.60;99.90
42833;DHT22;64089;51.478;5.692;2022-11-20T12:30:19;4.70;99.90
42833;DHT22;64089;51.478;5.692;2022-11-20T12:50:48;5.20;99.90
42833;DHT22;64089;51.478;5.692;2022-11-20T12:59:08;5.30;99.90
42833;DHT22;64089;51.478;5.692;2022-11-20T13:01:52;5.20;99.90
42833;DHT22;64089;51.478;5.692;2022-11-20T13:06:56;5.40;99.90
42833;DHT22;64089;51.478;5.692;2022-11-20T13:09:23;5.50;99.90
42833;DHT22;64089;51.478;5.692;2022-11-20T13:12:11;5.50;99.90
42833;DHT22;64089;51.478;5.692;2022-11-20T13:14:47;5.50;99.90
42833;DHT22;64089;51.478;5.692;2022-11-20T13:17:32;5.50;99.90
42833;DHT22;64089;51.478;5.692;2022-11-20T13:19:58;5.40;99.90
42833;DHT22;64089;51.478;5.692;2022-11-20T13:22:26;5.60;99.90
42833;DHT22;64089;51.478;5.692;2022-11-20T13:24:52;5.50;99.90
42833;DHT22;64089;51.478;5.692;2022-11-20T13:27:23;5.60;99.90
42833;DHT22;64089;51.478;5.692;2022-11-20T13:30:13;5.60;99.90
42833;DHT22;64089;51.478;5.692;2022-11-20T13:35:25;5.80;99.90
42833;DHT22;64089;51.478;5.692;2022-11-20T13:38:07;5.80;99.90
42833;DHT22;64089;51.478;5.692;2022-11-20T13:40:37;5.70;99.90
42833;DHT22;64089;51.478;5.692;2022-11-20T13:43:34;5.80;99.90
42833;DHT22;64089;51.478;5.692;2022-11-20T13:46:07;6.00;99.90
42833;DHT22;64089;51.478;5.692;2022-11-20T13:48:44;5.90;99.90
42833;DHT22;64089;51.478;5.692;2022-11-20T13:51:15;5.80;99.90
42833;DHT22;64089;51.478;5.692;2022-11-20T14:02:28;6.00;99.90
42833;DHT22;64089;51.478;5.692;2022-11-20T14:04:58;6.00;99.90
42833;DHT22;64089;51.478;5.692;2022-11-20T14:07:37;6.20;99.90
42833;DHT22;64089;51.478;5.692;2022-11-20T14:10:04;6.00;99.90
42833;DHT22;64089;51.478;5.692;2022-11-20T14:12:32;5.90;99.90
42833;DHT22;64089;51.478;5.692;2022-11-20T14:14:58;6.00;99.90
42833;DHT22;64089;51.478;5.692;2022-11-20T14:19:59;6.00;99.90
42833;DHT22;64089;51.478;5.692;2022-11-20T14:22:27;6.00;99.90
42833;DHT22;64089;51.478;5.692;2022-11-20T14:27:42;5.90;99.90
42833;DHT22;64089;51.478;5.692;2022-11-20T14:30:14;6.00;99.90
42833;DHT22;64089;51.478;5.692;2022-11-20T14:32:42;6.00;99.90
42833;DHT22;64089;51.478;5.692;2022-11-20T14:35:14;5.90;99.90
42833;DHT22;64089;51.478;5.692;2022-11-20T14:37:45;5.90;99.90
42833;DHT22;64089;51.478;5.692;2022-11-20T14:40:37;5.90;99.90
42833;DHT22;64089;51.478;5.692;2022-11-20T14:43:19;6.10;99.90
42833;DHT22;64089;51.478;5.692;2022-11-20T14:45:52;6.00;99.90
42833;DHT22;64089;51.478;5.692;2022-11-20T14:48:23;5.80;99.90
42833;DHT22;64089;51.478;5.692;2022-11-20T14:50:50;5.80;99.90
42833;DHT22;64089;51.478;5.692;2022-11-20T14:53:22;5.60;99.90
42833;DHT22;64089;51.478;5.692;2022-11-20T14:55:55;5.40;99.90
42833;DHT22;64089;51.478;5.692;2022-11-20T14:58:22;5.50;99.90
42833;DHT22;64089;51.478;5.692;2022-11-20T15:01:02;5.30;99.90
42833;DHT22;64089;51.478;5.692;2022-11-20T15:03:36;5.30;99.90
42833;DHT22;64089;51.478;5.692;2022-11-20T15:06:02;5.30;99.90
42833;DHT22;64089;51.478;5.692;2022-11-20T15:08:28;5.30;99.90
42833;DHT22;64089;51.478;5.692;2022-11-20T15:10:54;5.30;99.90
42833;DHT22;64089;51.478;5.692;2022-11-20T15:13:33;5.20;99.90
42833;DHT22;64089;51.478;5.692;2022-11-20T15:16:00;5.20;99.90
42833;DHT22;64089;51.478;5.692;2022-11-20T15:20:55;5.10;99.90
42833;DHT22;64089;51.478;5.692;2022-11-20T15:23:21;5.10;99.90
42833;DHT22;64089;51.478;5.692;2022-11-20T15:25:48;5.10;99.90
42833;DHT22;64089;51.478;5.692;2022-11-20T15:30:43;5.10;99.90
42833;DHT22;64089;51.478;5.692;2022-11-20T15:33:09;5.10;99.90
42833;DHT22;64089;51.478;5.692;2022-11-20T15:35:35;5.20;99.90
42833;DHT22;64089;51.478;5.692;2022-11-20T15:38:01;5.20;99.90
42833;DHT22;64089;51.478;5.692;2022-11-20T15:40:26;5.20;99.90
42833;DHT22;64089;51.478;5.692;2022-11-20T15:42:52;5.30;99.90
42833;DHT22;64089;51.478;5.692;2022-11-20T15:53:40;5.40;99.90
42833;DHT22;64089;51.478;5.692;2022-11-20T15:56:11;5.30;99.90
42833;DHT22;64089;51.478;5.692;2022-11-20T15:58:37;5.30;99.90
42833;DHT22;64089;51.478;5.692;2022-11-20T16:01:02;5.40;99.90
42833;DHT22;64089;51.478;5.692;2022-11-20T16:03:28;5.40;99.90
42833;DHT22;64089;51.478;5.692;2022-11-20T16:05:55;5.40;99.90
42833;DHT22;64089;51.478;5.692;2022-11-20T16:08:21;5.40;99.90
42833;DHT22;64089;51.478;5.692;2022-11-20T16:10:46;5.40;99.90
42833;DHT22;64089;51.478;5.692;2022-11-20T16:13:14;5.50;99.90
42833;DHT22;64089;51.478;5.692;2022-11-20T16:16:02;5.50;99.90
42833;DHT22;64089;51.478;5.692;2022-11-20T16:18:30;5.50;99.90
42833;DHT22;64089;51.478;5.692;2022-11-20T16:20:56;5.50;99.90
42833;DHT22;64089;51.478;5.692;2022-11-20T16:23:23;5.50;99.90
42833;DHT22;64089;51.478;5.692;2022-11-20T16:25:49;5.60;99.90
42833;DHT22;64089;51.478;5.692;2022-11-20T16:28:16;5.60;99.90
42833;DHT22;64089;51.478;5.692;2022-11-20T16:30:42;5.60;99.90
42833;DHT22;64089;51.478;5.692;2022-11-20T16:33:12;5.60;99.90
42833;DHT22;64089;51.478;5.692;2022-11-20T16:35:38;5.60;99.90
42833;DHT22;64089;51.478;5.692;2022-11-20T16:38:04;5.70;99.90
42833;DHT22;64089;51.478;5.692;2022-11-20T16:40:29;5.70;99.90
42833;DHT22;64089;51.478;5.692;2022-11-20T16:42:55;5.70;99.90
42833;DHT22;64089;51.478;5.692;2022-11-20T16:45:22;5.70;99.90
42833;DHT22;64089;51.478;5.692;2022-11-20T16:47:48;5.80;99.90
42833;DHT22;64089;51.478;5.692;2022-11-20T16:50:14;5.80;99.90
42833;DHT22;64089;51.478;5.692;2022-11-20T16:52:39;5.80;99.90
42833;DHT22;64089;51.478;5.692;2022-11-20T16:55:05;5.80;99.90
42833;DHT22;64089;51.478;5.692;2022-11-20T16:57:31;5.80;99.90
42833;DHT22;64089;51.478;5.692;2022-11-20T17:00:00;5.80;99.90
42833;DHT22;64089;51.478;5.692;2022-11-20T17:02:26;5.90;99.90
42833;DHT22;64089;51.478;5.692;2022-11-20T17:04:52;5.90;99.90
42833;DHT22;64089;51.478;5.692;2022-11-20T17:07:18;5.90;99.90
42833;DHT22;64089;51.478;5.692;2022-11-20T17:09:43;5.90;99.90
42833;DHT22;64089;51.478;5.692;2022-11-20T17:12:09;6.00;99.90
42833;DHT22;64089;51.478;5.692;2022-11-20T17:14:35;6.00;99.90
42833;DHT22;64089;51.478;5.692;2022-11-20T17:17:02;6.00;99.90
42833;DHT22;64089;51.478;5.692;2022-11-20T17:19:27;6.00;99.90
42833;DHT22;64089;51.478;5.692;2022-11-20T17:21:53;6.10;99.90
42833;DHT22;64089;51.478;5.692;2022-11-20T17:24:19;6.10;99.90
42833;DHT22;64089;51.478;5.692;2022-11-20T17:26:44;6.10;99.90
42833;DHT22;64089;51.478;5.692;2022-11-20T17:29:13;6.20;99.90
42833;DHT22;64089;51.478;5.692;2022-11-20T17:31:39;6.30;99.90
42833;DHT22;64089;51.478;5.692;2022-11-20T17:34:07;6.30;99.90
42833;DHT22;64089;51.478;5.692;2022-11-20T17:36:33;6.30;99.90
42833;DHT22;64089;51.478;5.692;2022-11-20T17:38:59;6.30;99.90
42833;DHT22;64089;51.478;5.692;2022-11-20T17:41:27;6.30;99.90